sensor_id;sensor_type;location;lat;lon;timestamp;P1;durP1;ratioP1;P2;durP2;ratioP2
2698;SDS011;1359;51.798;12.174;2022-07-23T00:02:04;17.00;;;9.00;;
2698;SDS011;1359;51.798;12.174;2022-07-23T00:04:31;10.43;;;8.03;;
2698;SDS011;1359;51.798;12.174;2022-07-23T00:06:56;9.20;;;7.60;;
2698;SDS011;1359;51.798;12.174;2022-07-23T00:09:21;9.27;;;8.13;;
2698;SDS011;1359;51.798;12.174;2022-07-23T00:11:46;9.45;;;8.23;;
2698;SDS011;1359;51.798;12.174;2022-07-23T00:14:12;11.38;;;8.30;;
2698;SDS011;1359;51.798;12.174;2022-07-23T00:16:37;12.95;;;9.13;;
2698;SDS011;1359;51.798;12.174;2022-07-23T00:19:02;10.80;;;7.90;;
2698;SDS011;1359;51.798;12.174;2022-07-23T00:21:27;9.00;;;8.10;;
2698;SDS011;1359;51.798;12.174;2022-07-23T00:23:53;10.23;;;7.77;;
2698;SDS011;1359;51.798;12.174;2022-07-23T00:26:18;8.75;;;7.80;;
2698;SDS011;1359;51.798;12.174;2022-07-23T00:28:43;9.02;;;8.23;;
2698;SDS011;1359;51.798;12.174;2022-07-23T00:31:08;13.13;;;8.27;;
2698;SDS011;1359;51.798;12.174;2022-07-23T00:33:33;10.13;;;8.17;;
2698;SDS011;1359;51.798;12.174;2022-07-23T00:35:58;10.88;;;8.55;;
2698;SDS011;1359;51.798;12.174;2022-07-23T00:38:24;10.47;;;7.47;;
2698;SDS011;1359;51.798;12.174;2022-07-23T00:40:49;9.23;;;8.38;;
2698;SDS011;1359;51.798;12.174;2022-07-23T00:43:14;12.05;;;8.85;;
2698;SDS011;1359;51.798;12.174;2022-07-23T00:45:39;10.70;;;8.50;;
2698;SDS011;1359;51.798;12.174;2022-07-23T00:48:06;11.73;;;7.60;;
2698;SDS011;1359;51.798;12.174;2022-07-23T00:50:31;11.13;;;8.67;;
2698;SDS011;1359;51.798;12.174;2022-07-23T00:52:56;9.37;;;8.50;;
2698;SDS011;1359;51.798;12.174;2022-07-23T00:55:21;10.70;;;8.77;;
2698;SDS011;1359;51.798;12.174;2022-07-23T00:57:47;11.10;;;10.00;;
2698;SDS011;1359;51.798;12.174;2022-07-23T01:00:13;8.80;;;7.30;;
2698;SDS011;1359;51.798;12.174;2022-07-23T01:02:38;11.07;;;7.83;;
2698;SDS011;1359;51.798;12.174;2022-07-23T01:05:04;11.20;;;8.70;;
2698;SDS011;1359;51.798;12.174;2022-07-23T01:07:29;10.63;;;8.40;;
2698;SDS011;1359;51.798;12.174;2022-07-23T01:09:54;11.70;;;9.20;;
2698;SDS011;1359;51.798;12.174;2022-07-23T01:12:20;11.13;;;8.10;;
2698;SDS011;1359;51.798;12.174;2022-07-23T01:14:52;10.37;;;8.77;;
2698;SDS011;1359;51.798;12.174;2022-07-23T01:17:18;8.70;;;7.90;;
2698;SDS011;1359;51.798;12.174;2022-07-23T01:19:43;9.93;;;8.82;;
2698;SDS011;1359;51.798;12.174;2022-07-23T01:22:08;10.23;;;9.13;;
2698;SDS011;1359;51.798;12.174;2022-07-23T01:24:34;11.53;;;8.10;;
2698;SDS011;1359;51.798;12.174;2022-07-23T01:26:59;9.18;;;8.27;;
2698;SDS011;1359;51.798;12.174;2022-07-23T01:29:24;12.55;;;9.02;;
2698;SDS011;1359;51.798;12.174;2022-07-23T01:31:49;8.90;;;7.50;;
2698;SDS011;1359;51.798;12.174;2022-07-23T01:34:15;12.50;;;8.70;;
2698;SDS011;1359;51.798;12.174;2022-07-23T01:36:40;13.45;;;8.63;;
2698;SDS011;1359;51.798;12.174;2022-07-23T01:39:05;10.50;;;7.90;;
2698;SDS011;1359;51.798;12.174;2022-07-23T01:41:31;9.53;;;7.87;;
2698;SDS011;1359;51.798;12.174;2022-07-23T01:43:56;18.23;;;9.73;;
2698;SDS011;1359;51.798;12.174;2022-07-23T01:46:21;10.17;;;7.60;;
2698;SDS011;1359;51.798;12.174;2022-07-23T01:48:46;9.55;;;8.13;;
2698;SDS011;1359;51.798;12.174;2022-07-23T01:51:11;8.93;;;7.90;;
2698;SDS011;1359;51.798;12.174;2022-07-23T01:53:36;10.40;;;9.05;;
2698;SDS011;1359;51.798;12.174;2022-07-23T01:56:02;12.47;;;9.27;;
2698;SDS011;1359;51.798;12.174;2022-07-23T01:58:28;11.87;;;8.70;;
2698;SDS011;1359;51.798;12.174;2022-07-23T02:00:53;9.00;;;8.10;;
2698;SDS011;1359;51.798;12.174;2022-07-23T02:03:19;11.20;;;9.80;;
2698;SDS011;1359;51.798;12.174;2022-07-23T02:05:44;11.47;;;8.83;;
2698;SDS011;1359;51.798;12.174;2022-07-23T02:08:09;9.93;;;9.02;;
2698;SDS011;1359;51.798;12.174;2022-07-23T02:10:34;11.50;;;9.03;;
2698;SDS011;1359;51.798;12.174;2022-07-23T02:12:59;10.27;;;9.30;;
2698;SDS011;1359;51.798;12.174;2022-07-23T02:15:25;9.27;;;8.37;;
2698;SDS011;1359;51.798;12.174;2022-07-23T02:17:50;11.60;;;8.17;;
2698;SDS011;1359;51.798;12.174;2022-07-23T02:20:16;11.20;;;8.75;;
2698;SDS011;1359;51.798;12.174;2022-07-23T02:22:41;12.43;;;8.93;;
2698;SDS011;1359;51.798;12.174;2022-07-23T02:25:06;9.48;;;8.57;;
2698;SDS011;1359;51.798;12.174;2022-07-23T02:27:32;8.57;;;7.77;;
2698;SDS011;1359;51.798;12.174;2022-07-23T02:29:57;10.63;;;8.13;;
2698;SDS011;1359;51.798;12.174;2022-07-23T02:32:23;12.53;;;8.97;;
2698;SDS011;1359;51.798;12.174;2022-07-23T02:34:48;8.90;;;8.03;;
2698;SDS011;1359;51.798;12.174;2022-07-23T02:37:13;11.48;;;8.52;;
2698;SDS011;1359;51.798;12.174;2022-07-23T02:39:39;17.97;;;8.67;;
2698;SDS011;1359;51.798;12.174;2022-07-23T02:42:04;9.97;;;8.87;;
2698;SDS011;1359;51.798;12.174;2022-07-23T02:44:29;10.80;;;9.10;;
2698;SDS011;1359;51.798;12.174;2022-07-23T02:46:54;10.60;;;7.90;;
2698;SDS011;1359;51.798;12.174;2022-07-23T02:49:19;10.63;;;8.45;;
2698;SDS011;1359;51.798;12.174;2022-07-23T02:51:45;9.55;;;8.45;;
2698;SDS011;1359;51.798;12.174;2022-07-23T02:54:10;10.77;;;8.75;;
2698;SDS011;1359;51.798;12.174;2022-07-23T02:56:35;11.23;;;8.13;;
2698;SDS011;1359;51.798;12.174;2022-07-23T02:59:00;13.90;;;8.63;;
2698;SDS011;1359;51.798;12.174;2022-07-23T03:01:25;12.55;;;9.63;;
2698;SDS011;1359;51.798;12.174;2022-07-23T03:03:50;11.33;;;9.20;;
2698;SDS011;1359;51.798;12.174;2022-07-23T03:06:16;14.87;;;10.17;;
2698;SDS011;1359;51.798;12.174;2022-07-23T03:08:41;13.75;;;10.70;;
2698;SDS011;1359;51.798;12.174;2022-07-23T03:11:06;11.95;;;9.90;;
2698;SDS011;1359;51.798;12.174;2022-07-23T03:13:36;13.77;;;12.13;;
2698;SDS011;1359;51.798;12.174;2022-07-23T03:16:01;15.60;;;10.90;;
2698;SDS011;1359;51.798;12.174;2022-07-23T03:18:26;14.25;;;10.10;;
2698;SDS011;1359;51.798;12.174;2022-07-23T03:20:51;12.20;;;10.20;;
2698;SDS011;1359;51.798;12.174;2022-07-23T03:23:17;12.35;;;8.90;;
2698;SDS011;1359;51.798;12.174;2022-07-23T03:25:42;9.60;;;8.57;;
2698;SDS011;1359;51.798;12.174;2022-07-23T03:28:07;13.25;;;9.95;;
2698;SDS011;1359;51.798;12.174;2022-07-23T03:30:32;11.40;;;9.85;;
2698;SDS011;1359;51.798;12.174;2022-07-23T03:32:57;10.23;;;8.95;;
2698;SDS011;1359;51.798;12.174;2022-07-23T03:35:23;16.97;;;10.60;;
2698;SDS011;1359;51.798;12.174;2022-07-23T03:37:48;12.43;;;10.60;;
2698;SDS011;1359;51.798;12.174;2022-07-23T03:40:13;11.90;;;10.80;;
2698;SDS011;1359;51.798;12.174;2022-07-23T03:42:38;11.75;;;10.32;;
2698;SDS011;1359;51.798;12.174;2022-07-23T03:45:06;9.67;;;8.67;;
2698;SDS011;1359;51.798;12.174;2022-07-23T03:47:31;13.70;;;10.10;;
2698;SDS011;1359;51.798;12.174;2022-07-23T03:49:56;10.48;;;9.38;;
2698;SDS011;1359;51.798;12.174;2022-07-23T03:52:21;10.32;;;9.32;;
2698;SDS011;1359;51.798;12.174;2022-07-23T03:54:46;13.82;;;9.55;;
2698;SDS011;1359;51.798;12.174;2022-07-23T03:57:12;13.17;;;9.30;;
2698;SDS011;1359;51.798;12.174;2022-07-23T03:59:37;10.25;;;9.15;;
2698;SDS011;1359;51.798;12.174;2022-07-23T04:02:02;12.23;;;10.63;;
2698;SDS011;1359;51.798;12.174;2022-07-23T04:04:27;13.63;;;9.55;;
2698;SDS011;1359;51.798;12.174;2022-07-23T04:06:52;10.30;;;8.77;;
2698;SDS011;1359;51.798;12.174;2022-07-23T04:09:17;10.00;;;8.50;;
2698;SDS011;1359;51.798;12.174;2022-07-23T04:11:42;13.85;;;8.77;;
2698;SDS011;1359;51.798;12.174;2022-07-23T04:14:07;12.83;;;10.77;;
2698;SDS011;1359;51.798;12.174;2022-07-23T04:16:33;11.13;;;8.60;;
2698;SDS011;1359;51.798;12.174;2022-07-23T04:18:58;10.30;;;9.20;;
2698;SDS011;1359;51.798;12.174;2022-07-23T04:21:23;13.60;;;8.50;;
2698;SDS011;1359;51.798;12.174;2022-07-23T04:23:48;10.80;;;8.97;;
2698;SDS011;1359;51.798;12.174;2022-07-23T04:26:13;12.20;;;10.00;;
2698;SDS011;1359;51.798;12.174;2022-07-23T04:28:39;11.82;;;9.35;;
2698;SDS011;1359;51.798;12.174;2022-07-23T04:31:04;11.70;;;9.60;;
2698;SDS011;1359;51.798;12.174;2022-07-23T04:33:29;15.00;;;10.73;;
2698;SDS011;1359;51.798;12.174;2022-07-23T04:35:54;21.08;;;12.07;;
2698;SDS011;1359;51.798;12.174;2022-07-23T04:38:19;13.27;;;10.00;;
2698;SDS011;1359;51.798;12.174;2022-07-23T04:40:44;11.10;;;10.00;;
2698;SDS011;1359;51.798;12.174;2022-07-23T04:43:10;11.77;;;9.55;;
2698;SDS011;1359;51.798;12.174;2022-07-23T04:45:35;15.30;;;10.40;;
2698;SDS011;1359;51.798;12.174;2022-07-23T04:48:00;13.43;;;10.63;;
2698;SDS011;1359;51.798;12.174;2022-07-23T04:50:26;14.43;;;10.50;;
2698;SDS011;1359;51.798;12.174;2022-07-23T04:52:51;12.27;;;11.07;;
2698;SDS011;1359;51.798;12.174;2022-07-23T04:55:16;17.00;;;10.10;;
2698;SDS011;1359;51.798;12.174;2022-07-23T04:57:41;12.53;;;10.20;;
2698;SDS011;1359;51.798;12.174;2022-07-23T05:00:07;12.20;;;10.93;;
2698;SDS011;1359;51.798;12.174;2022-07-23T05:02:32;14.27;;;10.23;;
2698;SDS011;1359;51.798;12.174;2022-07-23T05:04:57;15.60;;;10.98;;
2698;SDS011;1359;51.798;12.174;2022-07-23T05:07:22;13.80;;;9.90;;
2698;SDS011;1359;51.798;12.174;2022-07-23T05:09:47;11.20;;;9.53;;
2698;SDS011;1359;51.798;12.174;2022-07-23T05:12:13;10.97;;;9.87;;
2698;SDS011;1359;51.798;12.174;2022-07-23T05:14:38;15.80;;;13.17;;
2698;SDS011;1359;51.798;12.174;2022-07-23T05:17:04;10.77;;;9.53;;
2698;SDS011;1359;51.798;12.174;2022-07-23T05:19:29;10.43;;;9.50;;
2698;SDS011;1359;51.798;12.174;2022-07-23T05:21:54;12.83;;;10.30;;
2698;SDS011;1359;51.798;12.174;2022-07-23T05:24:19;11.70;;;10.50;;
2698;SDS011;1359;51.798;12.174;2022-07-23T05:26:44;16.80;;;11.30;;
2698;SDS011;1359;51.798;12.174;2022-07-23T05:29:09;14.13;;;10.55;;
2698;SDS011;1359;51.798;12.174;2022-07-23T05:31:34;11.45;;;10.00;;
2698;SDS011;1359;51.798;12.174;2022-07-23T05:34:00;10.43;;;9.52;;
2698;SDS011;1359;51.798;12.174;2022-07-23T05:36:25;14.93;;;10.10;;
2698;SDS011;1359;51.798;12.174;2022-07-23T05:38:50;12.15;;;9.52;;
2698;SDS011;1359;51.798;12.174;2022-07-23T05:41:15;11.87;;;9.60;;
2698;SDS011;1359;51.798;12.174;2022-07-23T05:43:40;10.88;;;9.30;;
2698;SDS011;1359;51.798;12.174;2022-07-23T05:46:05;15.98;;;11.50;;
2698;SDS011;1359;51.798;12.174;2022-07-23T05:48:30;12.83;;;10.40;;
2698;SDS011;1359;51.798;12.174;2022-07-23T05:50:56;13.53;;;10.20;;
2698;SDS011;1359;51.798;12.174;2022-07-23T05:53:21;10.53;;;9.23;;
2698;SDS011;1359;51.798;12.174;2022-07-23T05:55:46;11.50;;;9.93;;
2698;SDS011;1359;51.798;12.174;2022-07-23T05:58:12;12.57;;;10.17;;
2698;SDS011;1359;51.798;12.174;2022-07-23T06:00:37;11.90;;;9.80;;
2698;SDS011;1359;51.798;12.174;2022-07-23T06:03:02;17.38;;;10.90;;
2698;SDS011;1359;51.798;12.174;2022-07-23T06:05:27;12.17;;;10.00;;
2698;SDS011;1359;51.798;12.174;2022-07-23T06:07:52;11.43;;;10.17;;
2698;SDS011;1359;51.798;12.174;2022-07-23T06:10:18;14.63;;;11.27;;
2698;SDS011;1359;51.798;12.174;2022-07-23T06:12:43;12.43;;;10.97;;
2698;SDS011;1359;51.798;12.174;2022-07-23T06:15:08;12.80;;;10.77;;
2698;SDS011;1359;51.798;12.174;2022-07-23T06:17:33;14.50;;;11.67;;
2698;SDS011;1359;51.798;12.174;2022-07-23T06:19:59;13.35;;;10.55;;
2698;SDS011;1359;51.798;12.174;2022-07-23T06:22:24;12.93;;;10.50;;
2698;SDS011;1359;51.798;12.174;2022-07-23T06:24:49;13.20;;;11.80;;
2698;SDS011;1359;51.798;12.174;2022-07-23T06:27:16;18.13;;;11.43;;
2698;SDS011;1359;51.798;12.174;2022-07-23T06:29:41;12.00;;;10.88;;
2698;SDS011;1359;51.798;12.174;2022-07-23T06:32:07;12.37;;;11.17;;
2698;SDS011;1359;51.798;12.174;2022-07-23T06:34:32;12.50;;;10.30;;
2698;SDS011;1359;51.798;12.174;2022-07-23T06:36:57;12.40;;;11.20;;
2698;SDS011;1359;51.798;12.174;2022-07-23T06:39:23;17.30;;;11.53;;
2698;SDS011;1359;51.798;12.174;2022-07-23T06:41:48;12.60;;;11.27;;
2698;SDS011;1359;51.798;12.174;2022-07-23T06:44:13;14.30;;;11.48;;
2698;SDS011;1359;51.798;12.174;2022-07-23T06:46:38;14.10;;;10.82;;
2698;SDS011;1359;51.798;12.174;2022-07-23T06:49:03;12.43;;;10.25;;
2698;SDS011;1359;51.798;12.174;2022-07-23T06:51:29;11.93;;;10.27;;
2698;SDS011;1359;51.798;12.174;2022-07-23T06:53:54;12.00;;;10.80;;
2698;SDS011;1359;51.798;12.174;2022-07-23T06:56:19;16.77;;;11.35;;
2698;SDS011;1359;51.798;12.174;2022-07-23T06:58:44;12.30;;;10.13;;
2698;SDS011;1359;51.798;12.174;2022-07-23T07:01:09;13.10;;;10.00;;
2698;SDS011;1359;51.798;12.174;2022-07-23T07:03:34;11.48;;;10.38;;
2698;SDS011;1359;51.798;12.174;2022-07-23T07:06:00;11.10;;;9.40;;
2698;SDS011;1359;51.798;12.174;2022-07-23T07:08:25;14.27;;;10.73;;
2698;SDS011;1359;51.798;12.174;2022-07-23T07:10:50;11.07;;;9.70;;
2698;SDS011;1359;51.798;12.174;2022-07-23T07:13:15;10.02;;;8.60;;
2698;SDS011;1359;51.798;12.174;2022-07-23T07:15:41;16.20;;;10.33;;
2698;SDS011;1359;51.798;12.174;2022-07-23T07:18:06;9.43;;;8.57;;
2698;SDS011;1359;51.798;12.174;2022-07-23T07:20:31;11.23;;;9.05;;
2698;SDS011;1359;51.798;12.174;2022-07-23T07:22:56;10.10;;;8.20;;
2698;SDS011;1359;51.798;12.174;2022-07-23T07:25:21;14.47;;;8.60;;
2698;SDS011;1359;51.798;12.174;2022-07-23T07:27:46;14.60;;;9.27;;
2698;SDS011;1359;51.798;12.174;2022-07-23T07:30:12;10.03;;;8.97;;
2698;SDS011;1359;51.798;12.174;2022-07-23T07:32:37;10.23;;;9.17;;
2698;SDS011;1359;51.798;12.174;2022-07-23T07:35:05;12.33;;;8.30;;
2698;SDS011;1359;51.798;12.174;2022-07-23T07:37:31;10.37;;;9.27;;
2698;SDS011;1359;51.798;12.174;2022-07-23T07:39:56;14.27;;;10.57;;
2698;SDS011;1359;51.798;12.174;2022-07-23T07:42:21;11.30;;;8.80;;
2698;SDS011;1359;51.798;12.174;2022-07-23T07:44:46;10.43;;;9.38;;
2698;SDS011;1359;51.798;12.174;2022-07-23T07:47:11;11.13;;;9.47;;
2698;SDS011;1359;51.798;12.174;2022-07-23T07:49:36;12.10;;;9.77;;
2698;SDS011;1359;51.798;12.174;2022-07-23T07:52:01;12.00;;;9.80;;
2698;SDS011;1359;51.798;12.174;2022-07-23T07:54:27;13.10;;;9.07;;
2698;SDS011;1359;51.798;12.174;2022-07-23T07:56:52;11.60;;;9.90;;
2698;SDS011;1359;51.798;12.174;2022-07-23T07:59:17;10.75;;;9.20;;
2698;SDS011;1359;51.798;12.174;2022-07-23T08:01:42;13.38;;;9.45;;
2698;SDS011;1359;51.798;12.174;2022-07-23T08:04:07;10.18;;;9.15;;
2698;SDS011;1359;51.798;12.174;2022-07-23T08:06:32;10.18;;;8.43;;
2698;SDS011;1359;51.798;12.174;2022-07-23T08:08:57;9.93;;;8.93;;
2698;SDS011;1359;51.798;12.174;2022-07-23T08:11:23;13.50;;;9.63;;
2698;SDS011;1359;51.798;12.174;2022-07-23T08:13:48;14.13;;;9.18;;
2698;SDS011;1359;51.798;12.174;2022-07-23T08:16:13;9.32;;;8.52;;
2698;SDS011;1359;51.798;12.174;2022-07-23T08:18:38;10.55;;;9.25;;
2698;SDS011;1359;51.798;12.174;2022-07-23T08:21:03;10.48;;;9.38;;
2698;SDS011;1359;51.798;12.174;2022-07-23T08:23:30;16.00;;;9.50;;
2698;SDS011;1359;51.798;12.174;2022-07-23T08:25:56;12.10;;;9.23;;
2698;SDS011;1359;51.798;12.174;2022-07-23T08:28:21;10.80;;;9.67;;
2698;SDS011;1359;51.798;12.174;2022-07-23T08:30:47;10.63;;;9.53;;
2698;SDS011;1359;51.798;12.174;2022-07-23T08:33:13;10.80;;;9.70;;
2698;SDS011;1359;51.798;12.174;2022-07-23T08:35:42;13.00;;;9.93;;
2698;SDS011;1359;51.798;12.174;2022-07-23T08:38:09;12.30;;;11.10;;
2698;SDS011;1359;51.798;12.174;2022-07-23T08:40:36;12.83;;;9.73;;
2698;SDS011;1359;51.798;12.174;2022-07-23T08:43:04;15.77;;;10.83;;
2698;SDS011;1359;51.798;12.174;2022-07-23T08:45:29;11.07;;;9.97;;
2698;SDS011;1359;51.798;12.174;2022-07-23T08:47:55;10.82;;;9.77;;
2698;SDS011;1359;51.798;12.174;2022-07-23T08:50:21;11.83;;;10.50;;
2698;SDS011;1359;51.798;12.174;2022-07-23T08:52:48;14.17;;;9.40;;
2698;SDS011;1359;51.798;12.174;2022-07-23T08:55:13;12.50;;;11.20;;
2698;SDS011;1359;51.798;12.174;2022-07-23T08:57:38;15.00;;;10.50;;
2698;SDS011;1359;51.798;12.174;2022-07-23T09:00:04;13.80;;;12.35;;
2698;SDS011;1359;51.798;12.174;2022-07-23T09:02:35;13.77;;;11.43;;
2698;SDS011;1359;51.798;12.174;2022-07-23T09:05:03;12.87;;;11.57;;
2698;SDS011;1359;51.798;12.174;2022-07-23T09:07:28;12.40;;;10.03;;
2698;SDS011;1359;51.798;12.174;2022-07-23T09:10:09;14.63;;;11.55;;
2698;SDS011;1359;51.798;12.174;2022-07-23T09:12:35;12.80;;;10.83;;
2698;SDS011;1359;51.798;12.174;2022-07-23T09:15:07;13.17;;;11.47;;
2698;SDS011;1359;51.798;12.174;2022-07-23T09:17:40;15.17;;;10.00;;
2698;SDS011;1359;51.798;12.174;2022-07-23T09:20:09;11.13;;;9.93;;
2698;SDS011;1359;51.798;12.174;2022-07-23T09:22:35;14.37;;;10.80;;
2698;SDS011;1359;51.798;12.174;2022-07-23T09:25:07;13.52;;;9.55;;
2698;SDS011;1359;51.798;12.174;2022-07-23T09:27:49;15.50;;;10.50;;
2698;SDS011;1359;51.798;12.174;2022-07-23T09:30:15;15.90;;;10.67;;
2698;SDS011;1359;51.798;12.174;2022-07-23T09:32:40;12.93;;;10.93;;
2698;SDS011;1359;51.798;12.174;2022-07-23T09:35:06;14.17;;;10.33;;
2698;SDS011;1359;51.798;12.174;2022-07-23T09:37:31;11.70;;;10.57;;
2698;SDS011;1359;51.798;12.174;2022-07-23T09:40:03;16.53;;;9.50;;
2698;SDS011;1359;51.798;12.174;2022-07-23T09:42:29;11.10;;;9.27;;
2698;SDS011;1359;51.798;12.174;2022-07-23T09:44:55;13.30;;;9.90;;
2698;SDS011;1359;51.798;12.174;2022-07-23T09:47:21;17.83;;;10.07;;
2698;SDS011;1359;51.798;12.174;2022-07-23T09:52:30;10.90;;;9.50;;
2698;SDS011;1359;51.798;12.174;2022-07-23T09:54:58;15.10;;;12.57;;
2698;SDS011;1359;51.798;12.174;2022-07-23T09:57:24;14.80;;;11.50;;
2698;SDS011;1359;51.798;12.174;2022-07-23T09:59:50;16.10;;;11.83;;
2698;SDS011;1359;51.798;12.174;2022-07-23T10:02:16;14.63;;;12.13;;
2698;SDS011;1359;51.798;12.174;2022-07-23T10:04:41;13.93;;;11.67;;
2698;SDS011;1359;51.798;12.174;2022-07-23T10:07:07;19.07;;;12.40;;
2698;SDS011;1359;51.798;12.174;2022-07-23T10:09:34;12.57;;;11.37;;
2698;SDS011;1359;51.798;12.174;2022-07-23T10:12:01;18.30;;;13.50;;
2698;SDS011;1359;51.798;12.174;2022-07-23T10:14:31;16.93;;;13.40;;
2698;SDS011;1359;51.798;12.174;2022-07-23T10:16:58;15.50;;;12.07;;
2698;SDS011;1359;51.798;12.174;2022-07-23T10:19:25;14.80;;;13.20;;
2698;SDS011;1359;51.798;12.174;2022-07-23T10:21:52;18.47;;;13.67;;
2698;SDS011;1359;51.798;12.174;2022-07-23T10:24:21;18.03;;;13.97;;
2698;SDS011;1359;51.798;12.174;2022-07-23T10:29:32;15.37;;;12.97;;
2698;SDS011;1359;51.798;12.174;2022-07-23T10:32:01;17.23;;;14.03;;
2698;SDS011;1359;51.798;12.174;2022-07-23T10:34:36;15.00;;;12.73;;
2698;SDS011;1359;51.798;12.174;2022-07-23T10:37:39;15.27;;;13.80;;
2698;SDS011;1359;51.798;12.174;2022-07-23T10:40:09;19.80;;;14.57;;
2698;SDS011;1359;51.798;12.174;2022-07-23T10:42:35;17.03;;;13.33;;
2698;SDS011;1359;51.798;12.174;2022-07-23T10:45:01;16.27;;;14.77;;
2698;SDS011;1359;51.798;12.174;2022-07-23T10:47:46;18.63;;;16.03;;
2698;SDS011;1359;51.798;12.174;2022-07-23T10:50:18;21.85;;;16.58;;
2698;SDS011;1359;51.798;12.174;2022-07-23T10:53:07;19.30;;;17.40;;
2698;SDS011;1359;51.798;12.174;2022-07-23T10:57:53;20.20;;;18.00;;
2698;SDS011;1359;51.798;12.174;2022-07-23T11:00:22;19.52;;;17.58;;
2698;SDS011;1359;51.798;12.174;2022-07-23T11:02:58;17.80;;;16.07;;
2698;SDS011;1359;51.798;12.174;2022-07-23T11:05:25;18.37;;;16.23;;
2698;SDS011;1359;51.798;12.174;2022-07-23T11:10:37;22.90;;;18.50;;
2698;SDS011;1359;51.798;12.174;2022-07-23T11:23:59;17.40;;;14.60;;
2698;SDS011;1359;51.798;12.174;2022-07-23T11:37:02;15.77;;;14.20;;
2698;SDS011;1359;51.798;12.174;2022-07-23T11:39:29;17.53;;;15.03;;
2698;SDS011;1359;51.798;12.174;2022-07-23T11:41:54;21.60;;;16.80;;
2698;SDS011;1359;51.798;12.174;2022-07-23T11:44:23;16.00;;;14.30;;
2698;SDS011;1359;51.798;12.174;2022-07-23T11:46:58;15.87;;;14.47;;
2698;SDS011;1359;51.798;12.174;2022-07-23T11:49:24;15.70;;;13.23;;
2698;SDS011;1359;51.798;12.174;2022-07-23T11:54:54;14.17;;;12.87;;
2698;SDS011;1359;51.798;12.174;2022-07-23T11:57:20;13.40;;;12.10;;
2698;SDS011;1359;51.798;12.174;2022-07-23T11:59:50;14.13;;;12.73;;
2698;SDS011;1359;51.798;12.174;2022-07-23T12:02:16;12.00;;;10.30;;
2698;SDS011;1359;51.798;12.174;2022-07-23T12:04:42;13.90;;;12.25;;
2698;SDS011;1359;51.798;12.174;2022-07-23T12:09:48;12.40;;;9.80;;
2698;SDS011;1359;51.798;12.174;2022-07-23T12:12:13;10.47;;;9.47;;
2698;SDS011;1359;51.798;12.174;2022-07-23T12:14:47;11.48;;;10.40;;
2698;SDS011;1359;51.798;12.174;2022-07-23T12:17:12;9.77;;;8.90;;
2698;SDS011;1359;51.798;12.174;2022-07-23T12:19:37;16.42;;;9.90;;
2698;SDS011;1359;51.798;12.174;2022-07-23T12:22:02;9.60;;;7.57;;
2698;SDS011;1359;51.798;12.174;2022-07-23T12:24:28;10.80;;;8.27;;
2698;SDS011;1359;51.798;12.174;2022-07-23T12:27:14;8.37;;;7.60;;
2698;SDS011;1359;51.798;12.174;2022-07-23T12:29:39;11.90;;;8.97;;
2698;SDS011;1359;51.798;12.174;2022-07-23T12:32:21;9.60;;;8.70;;
2698;SDS011;1359;51.798;12.174;2022-07-23T12:34:48;10.27;;;8.33;;
2698;SDS011;1359;51.798;12.174;2022-07-23T12:37:29;10.60;;;9.60;;
2698;SDS011;1359;51.798;12.174;2022-07-23T12:39:54;9.10;;;8.27;;
2698;SDS011;1359;51.798;12.174;2022-07-23T12:42:19;12.80;;;8.18;;
2698;SDS011;1359;51.798;12.174;2022-07-23T12:47:28;8.70;;;7.93;;
2698;SDS011;1359;51.798;12.174;2022-07-23T12:49:54;9.07;;;8.35;;
2698;SDS011;1359;51.798;12.174;2022-07-23T12:52:19;9.40;;;8.30;;
2698;SDS011;1359;51.798;12.174;2022-07-23T12:54:44;8.90;;;8.10;;
2698;SDS011;1359;51.798;12.174;2022-07-23T12:57:09;9.00;;;7.90;;
2698;SDS011;1359;51.798;12.174;2022-07-23T12:59:34;12.40;;;8.20;;
2698;SDS011;1359;51.798;12.174;2022-07-23T13:02:00;9.70;;;8.80;;
2698;SDS011;1359;51.798;12.174;2022-07-23T13:04:25;12.07;;;9.07;;
2698;SDS011;1359;51.798;12.174;2022-07-23T13:06:55;9.77;;;8.87;;
2698;SDS011;1359;51.798;12.174;2022-07-23T13:09:21;9.23;;;8.43;;
2698;SDS011;1359;51.798;12.174;2022-07-23T13:11:47;9.40;;;8.60;;
2698;SDS011;1359;51.798;12.174;2022-07-23T13:14:13;9.30;;;8.30;;
2698;SDS011;1359;51.798;12.174;2022-07-23T13:16:38;10.40;;;9.50;;
2698;SDS011;1359;51.798;12.174;2022-07-23T13:19:04;10.87;;;9.97;;
2698;SDS011;1359;51.798;12.174;2022-07-23T13:21:29;9.60;;;8.70;;
2698;SDS011;1359;51.798;12.174;2022-07-23T13:23:55;9.50;;;8.60;;
2698;SDS011;1359;51.798;12.174;2022-07-23T13:26:20;14.37;;;8.70;;
2698;SDS011;1359;51.798;12.174;2022-07-23T13:28:45;10.30;;;9.50;;
2698;SDS011;1359;51.798;12.174;2022-07-23T13:31:10;15.70;;;9.10;;
2698;SDS011;1359;51.798;12.174;2022-07-23T13:33:35;10.07;;;8.50;;
2698;SDS011;1359;51.798;12.174;2022-07-23T13:36:01;10.38;;;9.57;;
2698;SDS011;1359;51.798;12.174;2022-07-23T13:38:26;10.07;;;9.27;;
2698;SDS011;1359;51.798;12.174;2022-07-23T13:40:52;11.43;;;10.33;;
2698;SDS011;1359;51.798;12.174;2022-07-23T13:43:18;9.10;;;8.30;;
2698;SDS011;1359;51.798;12.174;2022-07-23T13:45:44;11.17;;;8.83;;
2698;SDS011;1359;51.798;12.174;2022-07-23T13:48:09;12.10;;;11.00;;
2698;SDS011;1359;51.798;12.174;2022-07-23T13:50:35;12.33;;;11.23;;
2698;SDS011;1359;51.798;12.174;2022-07-23T13:53:02;12.37;;;11.10;;
2698;SDS011;1359;51.798;12.174;2022-07-23T13:55:27;12.23;;;11.03;;
2698;SDS011;1359;51.798;12.174;2022-07-23T13:57:52;16.60;;;12.60;;
2698;SDS011;1359;51.798;12.174;2022-07-23T14:00:17;11.63;;;10.55;;
2698;SDS011;1359;51.798;12.174;2022-07-23T14:02:42;11.57;;;10.57;;
2698;SDS011;1359;51.798;12.174;2022-07-23T14:05:08;12.13;;;11.18;;
2698;SDS011;1359;51.798;12.174;2022-07-23T14:07:34;15.07;;;12.77;;
2698;SDS011;1359;51.798;12.174;2022-07-23T14:09:59;13.70;;;12.10;;
2698;SDS011;1359;51.798;12.174;2022-07-23T14:12:25;12.60;;;11.37;;
2698;SDS011;1359;51.798;12.174;2022-07-23T14:14:50;14.13;;;11.73;;
2698;SDS011;1359;51.798;12.174;2022-07-23T14:17:15;12.37;;;11.30;;
2698;SDS011;1359;51.798;12.174;2022-07-23T14:19:40;10.88;;;9.98;;
2698;SDS011;1359;51.798;12.174;2022-07-23T14:22:06;12.67;;;11.47;;
2698;SDS011;1359;51.798;12.174;2022-07-23T14:24:31;13.00;;;11.93;;
2698;SDS011;1359;51.798;12.174;2022-07-23T14:26:56;11.43;;;10.32;;
2698;SDS011;1359;51.798;12.174;2022-07-23T14:29:21;9.37;;;8.50;;
2698;SDS011;1359;51.798;12.174;2022-07-23T14:31:46;10.00;;;7.77;;
2698;SDS011;1359;51.798;12.174;2022-07-23T14:34:11;9.27;;;8.05;;
2698;SDS011;1359;51.798;12.174;2022-07-23T14:36:37;7.88;;;7.07;;
2698;SDS011;1359;51.798;12.174;2022-07-23T14:39:02;7.53;;;6.83;;
2698;SDS011;1359;51.798;12.174;2022-07-23T14:41:27;7.93;;;7.23;;
2698;SDS011;1359;51.798;12.174;2022-07-23T14:43:53;8.43;;;7.73;;
2698;SDS011;1359;51.798;12.174;2022-07-23T14:46:18;7.97;;;7.25;;
2698;SDS011;1359;51.798;12.174;2022-07-23T14:48:43;7.53;;;6.77;;
2698;SDS011;1359;51.798;12.174;2022-07-23T14:51:08;7.70;;;7.17;;
2698;SDS011;1359;51.798;12.174;2022-07-23T14:53:34;8.15;;;7.45;;
2698;SDS011;1359;51.798;12.174;2022-07-23T14:55:59;6.65;;;6.15;;
2698;SDS011;1359;51.798;12.174;2022-07-23T14:58:24;7.90;;;7.30;;
2698;SDS011;1359;51.798;12.174;2022-07-23T15:00:49;6.50;;;6.10;;
2698;SDS011;1359;51.798;12.174;2022-07-23T15:03:14;7.03;;;6.30;;
2698;SDS011;1359;51.798;12.174;2022-07-23T15:05:40;7.05;;;6.25;;
2698;SDS011;1359;51.798;12.174;2022-07-23T15:08:05;5.82;;;5.10;;
2698;SDS011;1359;51.798;12.174;2022-07-23T15:10:30;5.72;;;4.78;;
2698;SDS011;1359;51.798;12.174;2022-07-23T15:12:55;4.57;;;4.18;;
2698;SDS011;1359;51.798;12.174;2022-07-23T15:15:20;5.40;;;4.90;;
2698;SDS011;1359;51.798;12.174;2022-07-23T15:17:46;5.63;;;4.60;;
2698;SDS011;1359;51.798;12.174;2022-07-23T15:20:11;5.10;;;4.63;;